Time;durP1;ratioP1;P1;durP2;ratioP2;P2;SDS_P1;SDS_P2;PMS_P1;PMS_P2;Temp;Humidity;BMP_temperature;BMP_pressure;BME280_temperature;BME280_humidity;BME280_pressure;Samples;Min_cycle;Max_cycle;Signal;HPM_P1;HPM_P2
2023/12/28 00:01:14;;;;;;;;;7.00;7.00;;;;;21.41;54.18;101028.80;111507;1268;20615;-31
2023/12/28 00:03:42;;;;;;;;;7.00;7.00;;;;;21.41;54.09;101028.68;111239;1253;19791;-31
2023/12/28 00:06:10;;;;;;;;;5.00;5.00;;;;;21.42;54.04;101021.77;111456;1268;18695;-31
2023/12/28 00:08:37;;;;;;;;;8.00;7.00;;;;;21.41;54.25;101016.27;111258;1253;19630;-31
2023/12/28 00:11:04;;;;;;;;;5.50;5.50;;;;;21.41;54.62;101009.83;111500;1269;18656;-31
2023/12/28 00:13:31;;;;;;;;;4.50;4.00;;;;;21.40;54.09;101004.54;111244;1261;19959;-31
2023/12/28 00:15:59;;;;;;;;;7.50;6.50;;;;;21.39;54.18;100996.85;111520;1253;20834;-31
2023/12/28 00:18:26;;;;;;;;;5.00;5.00;;;;;21.43;54.37;100999.09;111344;1269;19391;-31
2023/12/28 00:20:53;;;;;;;;;5.33;5.00;;;;;21.42;54.22;100996.38;111375;1269;18667;-31
2023/12/28 00:23:21;;;;;;;;;7.50;7.00;;;;;21.39;54.33;101003.94;111414;1253;19400;-31
2023/12/28 00:25:48;;;;;;;;;7.00;5.00;;;;;21.37;54.23;100998.53;111219;1268;19627;-31
2023/12/28 00:28:15;;;;;;;;;4.00;4.00;;;;;21.39;54.32;100992.60;111467;1268;18655;-31
2023/12/28 00:30:42;;;;;;;;;7.00;5.00;;;;;21.41;54.26;100989.99;111318;1254;20813;-31
2023/12/28 00:33:10;;;;;;;;;8.00;7.00;;;;;21.40;54.46;100991.67;111384;1268;19409;-31
2023/12/28 00:35:37;;;;;;;;;7.00;6.00;;;;;21.42;54.12;100987.64;111334;1253;21325;-31
2023/12/28 00:38:04;;;;;;;;;7.00;5.00;;;;;21.40;54.20;100985.90;111429;1261;20761;-31
2023/12/28 00:40:32;;;;;;;;;8.00;7.00;;;;;21.41;54.43;100971.63;111273;1254;20828;-31
2023/12/28 00:42:59;;;;;;;;;;;;;;;21.41;54.19;100955.55;111304;1269;18696;-31
2023/12/28 00:45:26;;;;;;;;;7.67;5.00;;;;;21.41;54.25;100944.42;111358;1253;20826;-31
2023/12/28 00:47:56;;;;;;;;;10.00;8.00;;;;;21.38;54.41;100937.11;111267;1253;19326;-31
2023/12/28 00:50:23;;;;;;;;;7.00;5.50;;;;;21.39;54.26;100928.83;111248;1253;20139;-31
2023/12/28 00:52:51;;;;;;;;;8.00;8.00;;;;;21.40;54.15;100926.17;111384;1262;20709;-31
2023/12/28 00:55:18;;;;;;;;;7.00;5.00;;;;;21.40;54.30;100923.27;111353;1254;19613;-31
2023/12/28 00:57:45;;;;;;;;;7.00;7.00;;;;;21.40;54.27;100932.38;111477;1253;20094;-31
2023/12/28 01:00:12;;;;;;;;;4.00;4.00;;;;;21.38;54.24;100931.06;111420;1268;20774;-31
2023/12/28 01:02:40;;;;;;;;;5.00;5.00;;;;;21.39;54.20;100911.07;111302;1253;19786;-31
2023/12/28 01:05:07;;;;;;;;;4.00;4.00;;;;;21.40;54.23;100901.26;111381;1269;18639;-32
2023/12/28 01:07:34;;;;;;;;;5.00;5.00;;;;;21.40;54.04;100894.83;111260;1268;19426;-31
2023/12/28 01:10:02;;;;;;;;;10.00;8.00;;;;;21.39;54.27;100893.08;111268;1253;19646;-31
2023/12/28 01:12:29;;;;;;;;;5.00;4.00;;;;;21.40;53.95;100891.99;111092;1269;159410;-31
2023/12/28 01:14:56;;;;;;;;;5.00;5.00;;;;;21.41;54.09;100902.40;111315;1253;20600;-31
2023/12/28 01:17:24;;;;;;;;;5.00;4.00;;;;;21.39;53.81;100907.91;111308;1253;19645;-31
2023/12/28 01:19:51;;;;;;;;;5.00;5.00;;;;;21.39;53.88;100908.67;111379;1269;18722;-31
2023/12/28 01:22:18;;;;;;;;;4.00;4.00;;;;;21.39;53.93;100901.48;111391;1253;21010;-31
2023/12/28 01:24:45;;;;;;;;;4.50;4.50;;;;;21.39;53.88;100890.95;111275;1253;18935;-31
2023/12/28 01:27:13;;;;;;;;;4.00;4.00;;;;;21.37;54.03;100874.11;111444;1253;21344;-31
2023/12/28 01:29:40;;;;;;;;;5.00;5.00;;;;;21.35;53.85;100868.99;111312;1269;22537;-31
2023/12/28 01:32:07;;;;;;;;;5.00;5.00;;;;;21.31;53.61;100865.23;111489;1268;18270;-31
2023/12/28 01:34:35;;;;;;;;;7.00;7.00;;;;;21.27;53.84;100854.11;111271;1256;20114;-31
2023/12/28 01:37:02;;;;;;;;;7.00;7.00;;;;;21.24;53.75;100847.18;111315;1268;19409;-31
2023/12/28 01:39:29;;;;;;;;;7.00;7.00;;;;;21.24;53.54;100842.98;111262;1267;18245;-31
2023/12/28 01:41:57;;;;;;;;;7.00;6.00;;;;;21.23;53.44;100841.18;111223;1260;18559;-31
2023/12/28 01:44:24;;;;;;;;;5.00;5.00;;;;;21.22;53.33;100838.29;111356;1253;21986;-31
2023/12/28 01:46:51;;;;;;;;;5.00;5.00;;;;;21.20;53.01;100839.90;111308;1267;18275;-31
2023/12/28 01:49:18;;;;;;;;;6.00;6.00;;;;;21.22;53.30;100854.96;111418;1261;20135;-31
2023/12/28 01:51:46;;;;;;;;;6.00;6.00;;;;;21.21;53.04;100859.26;111388;1269;20919;-31
2023/12/28 01:54:13;;;;;;;;;7.00;5.00;;;;;21.21;53.01;100854.30;111458;1268;19726;-31
2023/12/28 01:56:40;;;;;;;;;9.00;7.00;;;;;21.21;52.72;100852.98;111451;1253;18770;-31
2023/12/28 01:59:08;;;;;;;;;7.00;7.00;;;;;21.21;52.61;100843.50;111467;1253;20844;-31
2023/12/28 02:01:35;;;;;;;;;7.00;5.00;;;;;21.20;52.50;100836.25;111242;1253;19551;-31
2023/12/28 02:04:02;;;;;;;;;7.00;7.00;;;;;21.21;52.58;100830.54;111233;1253;19871;-31
2023/12/28 02:06:30;;;;;;;;;6.00;4.00;;;;;21.19;52.43;100815.38;111258;1261;21050;-31
2023/12/28 02:08:57;;;;;;;;;4.00;4.00;;;;;21.20;52.43;100808.58;111305;1253;18936;-31
2023/12/28 02:11:24;;;;;;;;;5.00;5.00;;;;;21.21;52.24;100798.67;111399;1253;20157;-31
2023/12/28 02:13:52;;;;;;;;;5.00;5.00;;;;;21.20;52.26;100799.42;111317;1253;20784;-31
2023/12/28 02:16:19;;;;;;;;;5.00;5.00;;;;;21.19;52.19;100793.20;111395;1269;18245;-31
2023/12/28 02:18:46;;;;;;;;;8.00;7.00;;;;;21.19;52.11;100782.59;111341;1253;20169;-31
2023/12/28 02:21:13;;;;;;;;;8.00;7.00;;;;;21.18;52.00;100776.75;111336;1253;19423;-31
2023/12/28 02:23:41;;;;;;;;;4.00;4.00;;;;;21.21;51.82;100774.64;111424;1269;19724;-31
2023/12/28 02:26:08;;;;;;;;;6.00;6.00;;;;;21.20;51.80;100772.02;111205;1254;20044;-31
2023/12/28 02:28:36;;;;;;;;;4.00;4.00;;;;;21.22;51.62;100755.52;111293;1255;20710;-31
2023/12/28 02:31:03;;;;;;;;;7.00;6.00;;;;;21.21;51.61;100744.56;111308;1260;18253;-31
2023/12/28 02:33:30;;;;;;;;;8.00;7.00;;;;;21.17;51.60;100728.98;111299;1253;20131;-31
2023/12/28 02:35:58;;;;;;;;;7.00;6.00;;;;;21.17;51.50;100720.59;111395;1254;21078;-31
2023/12/28 02:38:25;;;;;;;;;7.00;6.00;;;;;21.18;51.51;100717.27;111334;1268;18212;-31
2023/12/28 02:40:52;;;;;;;;;6.50;6.50;;;;;21.19;51.56;100721.08;111336;1269;18669;-31
2023/12/28 02:43:20;;;;;;;;;6.00;6.00;;;;;21.17;51.48;100717.59;111297;1269;22339;-31
2023/12/28 02:45:47;;;;;;;;;7.00;7.00;;;;;21.18;51.45;100716.02;111262;1268;18422;-31
2023/12/28 02:48:14;;;;;;;;;6.00;4.00;;;;;21.16;51.42;100707.73;111269;1253;20102;-31
2023/12/28 02:50:41;;;;;;;;;5.00;4.00;;;;;21.15;51.16;100698.67;111338;1253;20830;-31
2023/12/28 02:53:09;;;;;;;;;6.00;6.00;;;;;21.16;51.17;100685.07;111379;1253;19595;-31
2023/12/28 02:55:36;;;;;;;;;6.00;4.00;;;;;21.16;51.00;100677.02;111349;1254;19999;-31
2023/12/28 02:58:04;;;;;;;;;6.00;6.00;;;;;21.14;51.03;100668.30;111456;1268;20679;-31
2023/12/28 03:00:31;;;;;;;;;4.00;4.00;;;;;21.15;51.02;100668.40;111275;1260;19539;-31
2023/12/28 03:02:58;;;;;;;;;7.00;7.00;;;;;21.15;50.97;100654.73;111514;1253;18841;-31
2023/12/28 03:05:25;;;;;;;;;6.00;6.00;;;;;21.16;50.90;100655.92;111275;1262;21111;-31
2023/12/28 03:07:55;;;;;;;;;7.00;6.00;;;;;21.15;50.77;100650.96;111478;1269;18276;-31
2023/12/28 03:10:22;;;;;;;;;5.00;5.00;;;;;21.15;50.73;100640.67;111477;1253;18860;-31
2023/12/28 03:12:49;;;;;;;;;;;;;;;21.16;50.75;100627.65;111342;1253;20797;-31
2023/12/28 03:15:17;;;;;;;;;7.00;6.00;;;;;21.17;50.47;100611.63;111240;1261;19648;-31
2023/12/28 03:17:44;;;;;;;;;9.00;6.00;;;;;21.19;50.47;100609.99;111429;1269;18668;-31
2023/12/28 03:20:11;;;;;;;;;6.00;6.00;;;;;21.17;50.48;100603.35;111235;1253;20831;-31
2023/12/28 03:22:39;;;;;;;;;6.00;6.00;;;;;21.17;50.69;100593.16;111441;1269;18225;-31
2023/12/28 03:25:06;;;;;;;;;7.00;6.00;;;;;21.16;50.42;100592.84;111068;1269;18698;-31
2023/12/28 03:27:33;;;;;;;;;4.00;4.00;;;;;21.16;50.48;100591.59;111427;1254;20871;-31
2023/12/28 03:30:01;;;;;;;;;4.00;4.00;;;;;21.15;50.37;100570.23;111158;1258;19701;-29
2023/12/28 03:32:28;;;;;;;;;6.00;4.00;;;;;21.16;50.27;100560.92;111470;1269;18648;-29
2023/12/28 03:34:55;;;;;;;;;6.00;6.00;;;;;21.14;50.39;100555.36;111276;1254;20831;-30
2023/12/28 03:37:23;;;;;;;;;6.00;6.00;;;;;21.14;50.21;100550.46;111511;1254;18869;-29
2023/12/28 03:39:50;;;;;;;;;6.00;6.00;;;;;21.16;50.32;100546.31;111312;1269;18660;-30
2023/12/28 03:42:17;;;;;;;;;6.00;6.00;;;;;21.14;50.27;100548.29;111150;1254;21933;-29
2023/12/28 03:44:45;;;;;;;;;8.33;7.00;;;;;21.14;50.21;100544.63;111294;1254;19678;-30
2023/12/28 03:47:12;;;;;;;;;7.00;6.00;;;;;21.15;50.04;100540.43;111058;1269;18668;-30
2023/12/28 03:49:39;;;;;;;;;;;;;;;21.12;50.11;100526.12;111391;1254;20947;-30
2023/12/28 03:52:06;;;;;;;;;7.00;7.00;;;;;21.13;50.14;100515.71;111163;1254;19731;-30
2023/12/28 03:54:34;;;;;;;;;6.00;6.00;;;;;21.13;50.13;100512.89;111447;1269;18677;-30
2023/12/28 03:57:01;;;;;;;;;4.00;4.00;;;;;21.15;49.89;100515.38;111169;1269;20743;-30
2023/12/28 03:59:28;;;;;;;;;6.00;6.00;;;;;21.14;49.91;100515.98;111487;1253;18238;-30
2023/12/28 04:01:56;;;;;;;;;6.33;6.00;;;;;21.12;49.87;100518.11;111301;1256;20146;-30
2023/12/28 04:04:23;;;;;;;;;6.50;6.00;;;;;21.12;49.68;100512.66;111161;1254;19457;-30
2023/12/28 04:06:50;;;;;;;;;6.67;6.00;;;;;21.12;50.03;100522.68;111353;1269;19657;-30
2023/12/28 04:09:18;;;;;;;;;7.00;6.00;;;;;21.11;49.70;100537.56;111108;1269;20449;-30
2023/12/28 04:11:45;;;;;;;;;6.00;6.00;;;;;21.11;49.93;100542.41;111328;1254;20826;-30
2023/12/28 04:14:13;;;;;;;;;4.00;4.00;;;;;21.10;50.02;100534.13;111109;1256;19660;-30
2023/12/28 04:16:40;;;;;;;;;7.00;7.00;;;;;21.11;49.69;100535.12;111298;1254;21431;-29
2023/12/28 04:19:07;;;;;;;;;4.00;4.00;;;;;21.10;49.84;100528.91;111076;1269;19393;-29
2023/12/28 04:21:35;;;;;;;;;7.00;7.00;;;;;21.10;49.69;100523.95;111304;1254;18858;-30
2023/12/28 04:24:02;;;;;;;;;7.00;5.00;;;;;21.12;49.57;100517.90;111084;1269;19098;-30
2023/12/28 04:26:30;;;;;;;;;6.50;6.00;;;;;21.10;49.82;100504.07;111236;1254;21036;-30
2023/12/28 04:28:57;;;;;;;;;4.00;4.00;;;;;21.10;49.66;100499.27;111065;1254;19700;-30
2023/12/28 04:31:24;;;;;;;;;6.00;6.00;;;;;21.10;49.57;100500.80;111165;1256;20210;-30
2023/12/28 04:33:52;;;;;;;;;6.00;6.00;;;;;21.09;49.55;100505.59;111096;1254;19366;-30
2023/12/28 04:36:19;;;;;;;;;4.00;4.00;;;;;21.09;49.58;100497.76;111102;1269;18334;-30
2023/12/28 04:38:46;;;;;;;;;4.00;4.00;;;;;21.08;49.60;100486.59;111206;1254;18714;-30
2023/12/28 04:41:14;;;;;;;;;5.00;5.00;;;;;21.09;49.55;100483.41;111233;1254;20829;-30
2023/12/28 04:43:41;;;;;;;;;6.50;6.00;;;;;21.08;49.69;100469.77;111217;1269;19604;-30
2023/12/28 04:46:08;;;;;;;;;6.00;6.00;;;;;21.08;49.65;100467.80;111208;1253;18723;-30
2023/12/28 04:48:35;;;;;;;;;3.50;3.50;;;;;21.08;49.43;100465.73;111294;1254;20746;-30
2023/12/28 04:51:03;;;;;;;;;4.00;4.00;;;;;21.09;49.49;100471.66;111096;1261;20805;-29
2023/12/28 04:53:30;;;;;;;;;7.00;4.00;;;;;21.10;49.44;100467.41;111053;1256;20100;-30
2023/12/28 04:55:57;;;;;;;;;4.50;4.00;;;;;21.09;49.33;100449.39;111155;1254;22005;-30
2023/12/28 04:58:25;;;;;;;;;4.50;4.00;;;;;21.09;49.02;100442.63;111141;1262;18272;-29
2023/12/28 05:00:52;;;;;;;;;6.00;5.00;;;;;21.09;49.44;100432.77;111128;1269;18694;-29
2023/12/28 05:03:19;;;;;;;;;7.00;7.00;;;;;21.08;49.30;100436.80;111155;1254;20915;-30
2023/12/28 05:05:47;;;;;;;;;5.00;4.50;;;;;21.10;49.10;100448.57;111089;1261;19552;-30
2023/12/28 05:08:14;;;;;;;;;4.00;4.00;;;;;21.08;49.29;100448.63;111313;1269;18676;-29
2023/12/28 05:10:41;;;;;;;;;5.00;5.00;;;;;21.10;49.24;100438.38;111146;1254;21336;-30
2023/12/28 05:13:09;;;;;;;;;3.00;3.00;;;;;21.08;49.03;100435.17;111140;1256;19736;-29
2023/12/28 05:15:36;;;;;;;;;4.00;4.00;;;;;21.09;49.17;100437.89;111115;1254;20103;-30
2023/12/28 05:18:03;;;;;;;;;7.00;6.00;;;;;21.07;49.22;100438.45;111115;1269;20458;-30
2023/12/28 05:20:31;;;;;;;;;4.00;4.00;;;;;21.08;48.92;100447.11;111203;1269;18304;-30
2023/12/28 05:22:58;;;;;;;;;5.00;5.00;;;;;21.08;48.98;100444.55;111167;1262;18620;-30
2023/12/28 05:25:25;;;;;;;;;5.00;4.50;;;;;21.08;48.90;100440.61;111276;1269;19434;-29
2023/12/28 05:27:53;;;;;;;;;2.00;2.00;;;;;21.06;49.00;100428.16;111237;1254;19554;-30
2023/12/28 05:30:20;;;;;;;;;4.00;4.00;;;;;21.06;49.05;100422.60;111281;1254;20542;-30
2023/12/28 05:32:47;;;;;;;;;4.00;4.00;;;;;21.07;48.95;100418.03;111074;1254;19654;-30
2023/12/28 05:35:14;;;;;;;;;4.00;4.00;;;;;21.05;48.79;100419.98;111287;1256;19756;-30
2023/12/28 05:37:42;;;;;;;;;6.00;6.00;;;;;21.05;48.96;100419.89;111094;1254;20094;-30
2023/12/28 05:40:09;;;;;;;;;4.00;4.00;;;;;21.05;48.90;100416.83;111233;1256;20807;-30
2023/12/28 05:42:37;;;;;;;;;6.33;5.33;;;;;21.05;48.63;100412.76;111097;1254;19669;-30
2023/12/28 05:45:04;;;;;;;;;3.00;3.00;;;;;21.06;48.90;100407.02;111157;1269;21133;-30
2023/12/28 05:47:32;;;;;;;;;6.00;4.00;;;;;21.05;48.79;100406.92;111153;1262;20661;-30
2023/12/28 05:50:00;;;;;;;;;6.00;6.00;;;;;21.04;48.92;100406.48;111161;1264;19752;-29
2023/12/28 05:52:27;;;;;;;;;7.00;6.00;;;;;21.05;48.88;100410.14;111106;1254;18651;-29
2023/12/28 05:54:55;;;;;;;;;6.00;4.00;;;;;21.05;48.71;100411.61;111115;1254;20823;-29
2023/12/28 05:57:22;;;;;;;;;6.50;6.50;;;;;21.04;48.93;100405.46;111137;1254;19600;-30
2023/12/28 05:59:49;;;;;;;;;5.50;5.50;;;;;21.07;48.67;100413.13;111129;1269;20042;-29
2023/12/28 06:02:17;;;;;;;;;4.00;4.00;;;;;21.07;48.67;100404.95;111092;1254;20833;-29
2023/12/28 06:04:44;;;;;;;;;4.00;4.00;;;;;21.07;48.64;100407.73;111107;1254;19678;-29
2023/12/28 06:07:11;;;;;;;;;5.00;5.00;;;;;21.06;48.84;100394.44;111177;1254;20007;-29
2023/12/28 06:09:39;;;;;;;;;6.00;4.00;;;;;21.05;48.76;100391.89;111102;1269;20149;-29
2023/12/28 06:12:06;;;;;;;;;4.00;4.00;;;;;21.06;48.94;100392.65;111189;1269;18290;-29
2023/12/28 06:14:34;;;;;;;;;4.00;4.00;;;;;21.05;48.73;100394.17;111108;1269;18665;-29
2023/12/28 06:17:01;;;;;;;;;6.00;6.00;;;;;21.06;48.75;100386.82;111213;1269;19708;-29
2023/12/28 06:19:30;;;;;;;;;6.00;6.00;;;;;21.05;48.62;100383.55;111105;1254;18217;-29
2023/12/28 06:21:58;;;;;;;;;7.00;6.00;;;;;21.05;48.82;100376.42;111079;1254;20089;-29
2023/12/28 06:24:25;;;;;;;;;4.00;4.00;;;;;21.05;48.96;100379.64;111233;1256;20822;-29
2023/12/28 06:26:52;;;;;;;;;4.00;4.00;;;;;21.05;48.75;100377.52;111293;1254;20871;-30
2023/12/28 06:29:20;;;;;;;;;4.00;4.00;;;;;21.05;48.70;100370.44;111051;1256;20026;-29
2023/12/28 06:31:47;;;;;;;;;5.00;4.00;;;;;21.05;48.70;100364.11;111237;1269;19407;-29
2023/12/28 06:34:14;;;;;;;;;4.00;4.00;;;;;21.05;48.88;100371.52;111154;1254;19726;-29
2023/12/28 06:36:43;;;;;;;;;4.00;4.00;;;;;21.04;48.82;100373.33;111181;1269;18569;-29
2023/12/28 06:39:10;;;;;;;;;5.00;5.00;;;;;21.05;48.74;100380.39;111043;1256;20879;-29
2023/12/28 06:41:37;;;;;;;;;7.00;6.00;;;;;21.04;48.65;100382.91;111353;1254;19537;-29
2023/12/28 06:44:05;;;;;;;;;5.00;5.00;;;;;21.04;48.85;100400.71;111129;1254;20411;-30
2023/12/28 06:46:32;;;;;;;;;2.00;2.00;;;;;21.04;48.74;100396.58;111090;1254;20818;-30
2023/12/28 06:48:59;;;;;;;;;3.00;3.00;;;;;21.03;48.79;100393.59;111203;1254;20836;-29
2023/12/28 06:51:27;;;;;;;;;5.00;4.00;;;;;21.04;48.61;100394.61;111110;1261;19965;-29
2023/12/28 06:53:54;;;;;;;;;4.00;4.00;;;;;21.08;48.65;100398.52;111157;1254;20851;-30
2023/12/28 06:56:21;;;;;;;;;3.50;3.50;;;;;21.15;48.50;100408.94;111188;1254;20753;-30
2023/12/28 06:58:49;;;;;;;;;;;;;;;21.11;48.68;100414.30;111239;1269;19998;-30
2023/12/28 07:01:16;;;;;;;;;6.00;6.00;;;;;21.09;48.58;100403.25;111181;1269;19420;-30
2023/12/28 07:03:43;;;;;;;;;4.00;4.00;;;;;21.08;48.76;100407.18;111367;1269;18922;-30
2023/12/28 07:06:10;;;;;;;;;6.00;6.00;;;;;21.09;48.48;100406.41;111064;1255;20182;-30
2023/12/28 07:08:38;;;;;;;;;6.00;6.00;;;;;21.06;48.22;100405.55;111418;1269;20771;-30
2023/12/28 07:11:05;;;;;;;;;7.00;7.00;;;;;21.08;48.06;100400.27;111148;1254;19627;-30
2023/12/28 07:13:32;;;;;;;;;6.00;6.00;;;;;21.07;47.94;100403.38;111328;1269;18650;-29
2023/12/28 07:16:00;;;;;;;;;6.50;6.00;;;;;21.08;47.85;100408.48;111195;1254;20853;-29
2023/12/28 07:18:27;;;;;;;;;7.00;6.00;;;;;21.07;47.48;100409.58;111039;1254;19706;-30
2023/12/28 07:20:55;;;;;;;;;9.00;6.00;;;;;21.07;47.51;100416.12;111208;1253;20036;-29
2023/12/28 07:23:22;;;;;;;;;10.00;9.00;;;;;21.14;47.76;100422.34;111072;1254;21794;-29
2023/12/28 07:25:49;;;;;;;;;7.00;7.00;;;;;21.22;47.17;100421.23;111244;1269;18228;-29
2023/12/28 07:28:16;;;;;;;;;9.00;7.00;;;;;21.22;46.73;100422.20;111125;1254;18699;-29
2023/12/28 07:30:44;;;;;;;;;8.00;7.00;;;;;21.25;46.87;100423.30;111367;1254;20935;-29
2023/12/28 07:33:11;;;;;;;;;14.50;11.50;;;;;21.23;46.09;100429.89;111063;1269;18291;-28
2023/12/28 07:35:39;;;;;;;;;13.00;13.00;;;;;21.21;45.15;100426.13;111359;1269;19163;-29
2023/12/28 07:38:06;;;;;;;;;14.50;14.00;;;;;21.19;45.11;100437.95;111065;1269;20798;-28
2023/12/28 07:40:33;;;;;;;;;13.00;12.00;;;;;21.19;44.44;100430.82;111194;1269;18974;-29
2023/12/28 07:43:01;;;;;;;;;18.00;15.00;;;;;21.18;44.56;100430.23;111181;1254;20490;-29
2023/12/28 07:45:29;;;;;;;;;13.00;12.00;;;;;21.19;44.33;100439.20;111200;1263;21957;-29
2023/12/28 07:47:56;;;;;;;;;16.00;14.00;;;;;21.17;43.19;100440.20;111118;1254;20239;-29
2023/12/28 07:50:23;;;;;;;;;15.00;14.00;;;;;21.15;43.15;100447.77;111112;1254;20028;-29
2023/12/28 07:52:51;;;;;;;;;14.00;12.50;;;;;21.13;42.91;100451.05;111206;1269;19605;-29
2023/12/28 07:55:18;;;;;;;;;13.00;11.00;;;;;21.13;43.03;100455.42;111189;1269;18888;-30
2023/12/28 07:57:45;;;;;;;;;14.00;12.00;;;;;21.10;43.12;100452.59;111340;1254;20322;-29
2023/12/28 08:00:13;;;;;;;;;17.33;15.33;;;;;21.10;43.40;100448.40;111304;1254;22091;-30
2023/12/28 08:02:40;;;;;;;;;14.00;11.00;;;;;21.12;43.06;100459.39;111292;1262;20033;-29
2023/12/28 08:05:07;;;;;;;;;18.00;16.00;;;;;21.01;44.07;100461.99;111167;1254;18838;-29
2023/12/28 08:07:35;;;;;;;;;11.00;11.00;;;;;21.02;43.35;100456.61;111066;1254;20806;-29
2023/12/28 08:10:03;;;;;;;;;15.50;15.00;;;;;21.06;43.51;100456.32;111057;1254;20017;-29
2023/12/28 08:12:31;;;;;;;;;12.00;12.00;;;;;21.08;44.07;100453.30;111311;1269;18821;-29
2023/12/28 08:14:58;;;;;;;;;15.50;12.00;;;;;21.07;44.07;100460.83;111325;1262;20780;-29
2023/12/28 08:17:25;;;;;;;;;15.50;13.00;;;;;21.11;44.06;100463.48;111165;1254;20099;-29
2023/12/28 08:19:52;;;;;;;;;12.50;12.00;;;;;21.15;44.45;100463.35;111250;1269;20026;-29
2023/12/28 08:22:20;;;;;;;;;11.00;10.00;;;;;21.18;45.00;100464.75;111078;1269;20751;-30
2023/12/28 08:24:47;;;;;;;;;12.00;12.00;;;;;21.13;45.15;100462.01;111071;1253;20110;-30
2023/12/28 08:27:15;;;;;;;;;9.50;9.50;;;;;21.17;45.24;100464.71;111139;1263;21302;-30
2023/12/28 08:29:42;;;;;;;;;8.00;8.00;;;;;21.18;45.41;100470.64;111103;1269;19396;-30
2023/12/28 08:32:10;;;;;;;;;10.00;9.00;;;;;21.14;46.09;100472.29;111211;1254;18681;-30
2023/12/28 08:34:37;;;;;;;;;9.00;8.00;;;;;21.20;45.80;100471.52;111047;1255;20130;-31
2023/12/28 08:37:05;;;;;;;;;13.00;12.00;;;;;21.22;46.30;100470.91;111205;1269;19326;-29
2023/12/28 08:39:32;;;;;;;;;10.00;7.00;;;;;21.25;46.90;100466.94;111091;1265;19654;-30
2023/12/28 08:42:00;;;;;;;;;9.00;9.00;;;;;21.24;47.34;100466.28;111217;1254;20002;-30
2023/12/28 08:44:27;;;;;;;;;7.00;7.00;;;;;21.17;48.42;100454.02;111055;1269;20130;-30
2023/12/28 08:46:54;;;;;;;;;9.00;8.00;;;;;21.20;48.26;100455.95;111313;1254;19735;-30
2023/12/28 08:49:23;;;;;;;;;9.00;8.50;;;;;21.21;48.53;100455.28;111084;1256;20136;-30
2023/12/28 08:51:50;;;;;;;;;12.00;8.00;;;;;21.22;48.51;100457.52;111292;1254;20824;-30
2023/12/28 08:54:17;;;;;;;;;14.00;9.50;;;;;21.18;48.93;100460.23;111049;1269;18309;-30
2023/12/28 08:56:44;;;;;;;;;8.00;8.00;;;;;21.18;49.20;100470.86;111318;1254;20139;-30
2023/12/28 08:59:12;;;;;;;;;9.33;8.67;;;;;21.19;49.40;100472.70;111103;1262;19444;-30
2023/12/28 09:01:39;;;;;;;;;7.00;7.00;;;;;21.20;49.23;100465.80;111417;1254;19772;-30
2023/12/28 09:04:06;;;;;;;;;10.00;9.00;;;;;21.23;49.09;100460.23;111166;1254;19839;-30
2023/12/28 09:06:35;;;;;;;;;8.00;7.00;;;;;21.24;48.86;100470.38;111452;1254;20873;-29
2023/12/28 09:09:03;;;;;;;;;6.00;6.00;;;;;21.24;48.59;100477.51;111064;1254;20127;-30
2023/12/28 09:11:30;;;;;;;;;13.00;10.00;;;;;21.23;48.71;100479.20;111340;1253;18838;-30
2023/12/28 09:13:59;;;;;;;;;10.00;10.00;;;;;21.23;48.71;100486.66;111094;1254;20818;-30
2023/12/28 09:16:28;;;;;;;;;10.00;9.50;;;;;21.17;48.52;100482.90;111177;1269;20448;-30
2023/12/28 09:18:56;;;;;;;;;12.00;12.00;;;;;21.16;48.36;100479.38;111335;1262;20084;-30
2023/12/28 09:21:25;;;;;;;;;11.00;9.00;;;;;21.20;47.89;100478.71;111015;1256;19603;-30
2023/12/28 09:23:52;;;;;;;;;11.00;9.50;;;;;21.12;47.85;100473.83;111141;1269;19900;-30
2023/12/28 09:26:20;;;;;;;;;12.00;12.00;;;;;21.08;47.59;100479.63;111285;1269;18739;-30
2023/12/28 09:28:47;;;;;;;;;21.00;12.00;;;;;21.00;47.35;100480.25;111096;1254;20828;-30
2023/12/28 09:31:14;;;;;;;;;12.50;12.00;;;;;21.03;47.11;100484.31;111294;1269;18803;-29
2023/12/28 09:33:42;;;;;;;;;10.00;10.00;;;;;20.99;47.24;100479.43;111102;1269;20325;-29
2023/12/28 09:36:09;;;;;;;;;14.50;12.50;;;;;20.96;46.69;100483.58;111042;1255;20801;-29
2023/12/28 09:38:36;;;;;;;;;12.00;9.00;;;;;20.89;46.00;100478.60;111188;1269;20084;-29
2023/12/28 09:41:03;;;;;;;;;12.50;12.00;;;;;20.87;45.67;100479.31;111189;1253;18685;-30
2023/12/28 09:43:36;;;;;;;;;10.50;9.50;;;;;20.88;45.32;100475.17;111332;1254;20831;-29
2023/12/28 09:46:04;;;;;;;;;13.00;12.50;;;;;20.88;45.05;100475.27;111157;1253;20153;-30
2023/12/28 09:48:31;;;;;;;;;9.00;8.00;;;;;20.85;44.90;100483.24;111270;1269;20112;-29
2023/12/28 09:50:58;;;;;;;;;7.00;7.00;;;;;20.82;44.59;100483.58;111244;1254;20701;-29
2023/12/28 09:53:26;;;;;;;;;12.00;9.00;;;;;20.81;44.42;100482.66;111344;1256;19757;-30
2023/12/28 09:55:53;;;;;;;;;9.00;9.00;;;;;20.79;44.29;100486.83;111274;1269;20070;-30
2023/12/28 09:58:20;;;;;;;;;10.00;9.00;;;;;20.79;44.58;100497.27;111229;1254;22535;-29
2023/12/28 10:00:48;;;;;;;;;9.00;7.00;;;;;20.78;44.18;100495.34;111351;1269;19535;-29
2023/12/28 10:03:15;;;;;;;;;9.00;7.00;;;;;20.77;44.03;100492.66;111057;1262;19961;-29
2023/12/28 10:05:42;;;;;;;;;10.00;10.00;;;;;20.78;43.98;100493.80;111164;1254;21922;-29
2023/12/28 10:08:10;;;;;;;;;9.50;9.50;;;;;20.77;43.91;100492.11;111071;1254;20915;-29
2023/12/28 10:10:37;;;;;;;;;9.00;9.00;;;;;20.75;43.50;100487.11;111065;1269;18655;-29
2023/12/28 10:13:04;;;;;;;;;11.00;10.00;;;;;20.75;43.53;100484.06;111150;1254;20849;-29
2023/12/28 10:15:31;;;;;;;;;10.00;9.00;;;;;20.73;43.38;100482.10;111153;1254;19642;-29
2023/12/28 10:17:59;;;;;;;;;13.00;12.00;;;;;20.72;43.27;100480.52;111240;1254;20082;-29
2023/12/28 10:20:26;;;;;;;;;10.00;10.00;;;;;20.72;43.33;100481.19;111190;1261;19424;-30
2023/12/28 10:22:54;;;;;;;;;10.00;10.00;;;;;20.72;43.19;100470.30;111291;1261;20107;-29
2023/12/28 10:25:21;;;;;;;;;8.50;8.00;;;;;20.72;43.13;100471.06;111066;1254;20323;-29
2023/12/28 10:27:48;;;;;;;;;12.00;12.00;;;;;20.75;43.10;100477.75;111299;1256;20855;-29
2023/12/28 10:30:16;;;;;;;;;10.00;10.00;;;;;20.85;42.71;100475.52;111159;1269;18251;-29
2023/12/28 10:32:43;;;;;;;;;16.00;13.00;;;;;20.81;43.08;100470.80;111354;1269;19965;-29
2023/12/28 10:35:11;;;;;;;;;10.00;10.00;;;;;20.80;43.43;100461.94;111237;1264;20943;-29
2023/12/28 10:37:38;;;;;;;;;10.00;9.00;;;;;20.92;43.80;100455.77;111338;1269;19995;-29
2023/12/28 10:40:06;;;;;;;;;12.00;10.00;;;;;20.92;43.78;100449.45;111104;1254;20129;-29
2023/12/28 10:42:33;;;;;;;;;13.00;10.00;;;;;20.97;44.09;100455.31;111399;1254;20823;-29
2023/12/28 10:45:00;;;;;;;;;12.00;12.00;;;;;20.96;44.30;100456.63;111064;1254;18675;-29
2023/12/28 10:47:28;;;;;;;;;10.00;9.00;;;;;20.99;44.70;100454.98;111099;1254;19012;-29
2023/12/28 10:49:55;;;;;;;;;7.00;7.00;;;;;21.05;46.38;100457.02;111042;1269;19433;-30
2023/12/28 10:52:22;;;;;;;;;9.00;9.00;;;;;21.09;46.93;100460.12;110992;1255;20157;-30
2023/12/28 10:54:49;;;;;;;;;12.00;10.00;;;;;21.12;47.66;100463.38;111052;1262;18763;-30
2023/12/28 10:57:17;;;;;;;;;10.00;7.00;;;;;21.15;47.97;100456.71;111001;1255;20837;-30
2023/12/28 10:59:44;;;;;;;;;10.00;10.00;;;;;21.17;48.62;100463.95;111093;1254;20201;-30
2023/12/28 11:02:12;;;;;;;;;13.00;12.00;;;;;21.20;49.27;100466.21;111087;1254;21315;-30
2023/12/28 11:04:41;;;;;;;;;10.00;10.00;;;;;21.24;49.65;100466.83;111095;1269;19330;-30
2023/12/28 11:07:08;;;;;;;;;12.00;10.00;;;;;21.23;50.48;100465.58;111027;1269;18731;-30
2023/12/28 11:09:35;;;;;;;;;10.00;10.00;;;;;21.22;50.23;100462.85;111048;1254;21463;-29
2023/12/28 11:12:03;;;;;;;;;11.00;10.00;;;;;21.25;50.83;100456.86;111025;1254;20878;-30
2023/12/28 11:14:30;;;;;;;;;12.00;10.00;;;;;21.22;51.39;100457.02;111068;1254;20207;-30